createdAt,value
2018-05-16T00:00:03.256Z,1007.18
2018-05-16T00:01:03.152Z,1007.17
2018-05-16T00:02:03.063Z,1007.20
2018-05-16T00:03:02.958Z,1007.23
2018-05-16T00:04:02.855Z,1007.27
2018-05-16T00:05:02.763Z,1007.28
2018-05-16T00:06:02.659Z,1007.29
2018-05-16T00:07:02.571Z,1007.29
2018-05-16T00:08:02.468Z,1007.30
2018-05-16T00:09:02.364Z,1007.36
2018-05-16T00:10:02.271Z,1007.34
2018-05-16T00:11:02.169Z,1007.39
2018-05-16T00:12:02.066Z,1007.45
2018-05-16T00:13:02.003Z,1007.45
2018-05-16T00:14:01.872Z,1007.40
2018-05-16T00:15:01.780Z,1007.42
2018-05-16T00:16:01.677Z,1007.39
2018-05-16T00:17:01.575Z,1007.42
2018-05-16T00:18:01.785Z,1007.39
2018-05-16T00:19:01.380Z,1007.37
2018-05-16T00:20:01.279Z,1007.34
2018-05-16T00:21:01.186Z,1007.33
2018-05-16T00:22:01.084Z,1007.30
2018-05-16T00:23:00.980Z,1007.26
2018-05-16T00:24:00.890Z,1007.33
2018-05-16T00:25:00.785Z,1007.37
2018-05-16T00:26:00.694Z,1007.37
2018-05-16T00:27:00.591Z,1007.31
2018-05-16T00:28:00.487Z,1007.31
2018-05-16T00:29:00.397Z,1007.28
2018-05-16T00:30:00.294Z,1007.28
2018-05-16T00:31:00.190Z,1007.28
2018-05-16T00:32:00.098Z,1007.29
2018-05-16T00:32:59.997Z,1007.29
2018-05-16T00:33:59.905Z,1007.28
2018-05-16T00:34:59.802Z,1007.27
2018-05-16T00:35:59.699Z,1007.26
2018-05-16T00:36:59.607Z,1007.27
2018-05-16T00:37:59.503Z,1007.30
2018-05-16T00:38:59.404Z,1007.23
2018-05-16T00:39:59.310Z,1007.22
2018-05-16T00:40:59.209Z,1007.24
2018-05-16T00:41:59.117Z,1007.23
2018-05-16T00:42:59.013Z,1007.21
2018-05-16T00:43:58.910Z,1007.24
2018-05-16T00:44:58.819Z,1007.26
2018-05-16T00:45:58.715Z,1007.28
2018-05-16T00:46:58.613Z,1007.29
2018-05-16T00:47:58.524Z,1007.31
2018-05-16T00:48:58.417Z,1007.30
2018-05-16T00:49:58.328Z,1007.29
2018-05-16T00:50:58.248Z,1007.28
2018-05-16T00:51:58.122Z,1007.26
2018-05-16T00:52:58.029Z,1007.27
2018-05-16T00:53:57.926Z,1007.28
2018-05-16T00:54:57.824Z,1007.28
2018-05-16T00:55:57.725Z,1007.28
2018-05-16T00:56:57.630Z,1007.25
2018-05-16T00:57:57.855Z,1007.27
2018-05-16T00:58:57.434Z,1007.24
2018-05-16T00:59:57.330Z,1007.24
2018-05-16T01:00:57.241Z,1007.25
2018-05-16T01:01:57.138Z,1007.29
2018-05-16T01:02:57.048Z,1007.30
2018-05-16T01:03:56.942Z,1007.23
2018-05-16T01:04:56.840Z,1007.26
2018-05-16T01:05:56.749Z,1007.26
2018-05-16T01:06:56.645Z,1007.29
2018-05-16T01:07:56.542Z,1007.22
2018-05-16T01:08:56.451Z,1007.25
2018-05-16T01:09:56.348Z,1007.27
2018-05-16T01:10:56.246Z,1007.27
2018-05-16T01:11:56.156Z,1007.26
2018-05-16T01:12:56.051Z,1007.24
2018-05-16T01:13:55.959Z,1007.24
2018-05-16T01:14:55.856Z,1007.26
2018-05-16T01:15:55.753Z,1007.24
2018-05-16T01:16:55.663Z,1007.26
2018-05-16T01:17:55.560Z,1007.27
2018-05-16T01:18:55.481Z,1007.23
2018-05-16T01:19:55.365Z,1007.23
2018-05-16T01:20:55.262Z,1007.23
2018-05-16T01:21:55.172Z,1007.22
2018-05-16T01:22:55.073Z,1007.23
2018-05-16T01:23:54.970Z,1007.26
2018-05-16T01:24:54.871Z,1007.24
2018-05-16T01:25:54.769Z,1007.21
2018-05-16T01:26:54.684Z,1007.22
2018-05-16T01:27:54.576Z,1007.24
2018-05-16T01:28:54.473Z,1007.23
2018-05-16T01:29:54.381Z,1007.21
2018-05-16T01:30:54.278Z,1007.24
2018-05-16T01:31:54.176Z,1007.21
2018-05-16T01:32:54.087Z,1007.22
2018-05-16T01:33:53.981Z,1007.20
2018-05-16T01:34:53.889Z,1007.21
2018-05-16T01:35:53.786Z,1007.21
2018-05-16T01:36:53.683Z,1007.18
2018-05-16T01:37:53.593Z,1007.16
2018-05-16T01:38:53.490Z,1007.15
2018-05-16T01:39:53.417Z,1007.13
2018-05-16T01:40:53.301Z,1007.21
2018-05-16T01:41:53.193Z,1007.17
2018-05-16T01:42:53.102Z,1007.21
2018-05-16T01:43:52.998Z,1007.24
2018-05-16T01:44:52.898Z,1007.17
2018-05-16T01:45:52.803Z,1007.15
2018-05-16T01:46:52.699Z,1007.15
2018-05-16T01:47:52.610Z,1007.17
2018-05-16T01:48:52.507Z,1007.14
2018-05-16T01:49:52.404Z,1007.12
2018-05-16T01:50:52.311Z,1007.17
2018-05-16T01:51:52.208Z,1007.14
2018-05-16T01:52:52.106Z,1007.22
2018-05-16T01:53:52.016Z,1007.21
2018-05-16T01:54:51.916Z,1007.16
2018-05-16T01:55:51.821Z,1007.16
2018-05-16T01:56:51.731Z,1007.19
2018-05-16T01:57:51.619Z,1007.20
2018-05-16T01:58:51.523Z,1007.21
2018-05-16T01:59:51.420Z,1007.19
2018-05-16T02:00:51.328Z,1007.20
2018-05-16T02:01:51.225Z,1007.21
2018-05-16T02:02:51.126Z,1007.23
2018-05-16T02:03:51.031Z,1007.19
2018-05-16T02:04:50.929Z,1007.15
2018-05-16T02:05:50.826Z,1007.17
2018-05-16T02:06:50.737Z,1007.16
2018-05-16T02:07:50.630Z,1007.19
2018-05-16T02:08:50.540Z,1007.23
2018-05-16T02:09:50.437Z,1007.17
2018-05-16T02:10:50.333Z,1007.17
2018-05-16T02:11:50.256Z,1007.18
2018-05-16T02:12:50.138Z,1007.16
2018-05-16T02:13:50.050Z,1007.21
2018-05-16T02:14:49.948Z,1007.21
2018-05-16T02:15:49.850Z,1007.20
2018-05-16T02:16:49.750Z,1007.20
2018-05-16T02:17:49.947Z,1007.19
2018-05-16T02:18:49.545Z,1007.20
2018-05-16T02:19:49.457Z,1007.21
2018-05-16T02:20:49.351Z,1007.15
2018-05-16T02:21:49.260Z,1007.20
2018-05-16T02:22:49.155Z,1007.19
2018-05-16T02:23:49.052Z,1007.19
2018-05-16T02:24:48.962Z,1007.23
2018-05-16T02:25:48.859Z,1007.20
2018-05-16T02:26:48.767Z,1007.18
2018-05-16T02:27:48.664Z,1007.20
2018-05-16T02:28:48.561Z,1007.16
2018-05-16T02:29:48.470Z,1007.15
2018-05-16T02:30:48.368Z,1007.16
2018-05-16T02:31:48.265Z,1007.13
2018-05-16T02:32:48.173Z,1007.16
2018-05-16T02:33:48.069Z,1007.15
2018-05-16T02:34:47.980Z,1007.12
2018-05-16T02:35:47.877Z,1007.13
2018-05-16T02:36:47.773Z,1007.11
2018-05-16T02:37:47.686Z,1007.15
2018-05-16T02:38:47.578Z,1007.15
2018-05-16T02:39:47.488Z,1007.15
2018-05-16T02:40:47.384Z,1007.10
2018-05-16T02:41:47.282Z,1007.10
2018-05-16T02:42:47.189Z,1007.11
2018-05-16T02:43:47.086Z,1007.15
2018-05-16T02:44:46.996Z,1007.14
2018-05-16T02:45:46.893Z,1007.11
2018-05-16T02:46:46.790Z,1007.13
2018-05-16T02:47:46.698Z,1007.11
2018-05-16T02:48:46.595Z,1007.12
2018-05-16T02:49:46.506Z,1007.14
2018-05-16T02:50:46.402Z,1007.11
2018-05-16T02:51:46.298Z,1007.12
2018-05-16T02:52:46.207Z,1007.12
2018-05-16T02:53:46.103Z,1007.12
2018-05-16T02:54:46.001Z,1007.08
2018-05-16T02:55:45.910Z,1007.08
2018-05-16T02:56:45.806Z,1007.05
2018-05-16T02:57:45.715Z,1007.03
2018-05-16T02:58:45.612Z,1007.06
2018-05-16T02:59:45.509Z,1007.06
2018-05-16T03:00:45.418Z,1007.05
2018-05-16T03:01:45.314Z,1007.09
2018-05-16T03:02:45.224Z,1007.10
2018-05-16T03:03:45.133Z,1007.10
2018-05-16T03:04:45.017Z,1007.09
2018-05-16T03:05:44.926Z,1007.06
2018-05-16T03:06:44.826Z,1007.10
2018-05-16T03:07:44.722Z,1007.09
2018-05-16T03:08:44.633Z,1007.08
2018-05-16T03:09:44.525Z,1007.09
2018-05-16T03:10:44.435Z,1007.14
2018-05-16T03:11:44.332Z,1007.12
2018-05-16T03:12:44.235Z,1007.18
2018-05-16T03:13:44.137Z,1007.13
2018-05-16T03:14:44.033Z,1007.16
2018-05-16T03:15:43.946Z,1007.11
2018-05-16T03:16:43.840Z,1007.13
2018-05-16T03:17:43.737Z,1007.17
2018-05-16T03:18:43.648Z,1007.12
2018-05-16T03:19:43.541Z,1007.15
2018-05-16T03:20:43.461Z,1007.14
2018-05-16T03:21:43.349Z,1007.13
2018-05-16T03:22:43.245Z,1007.12
2018-05-16T03:23:43.154Z,1007.13
2018-05-16T03:24:43.049Z,1007.14
2018-05-16T03:25:42.953Z,1007.09
2018-05-16T03:26:42.857Z,1007.11
2018-05-16T03:27:42.753Z,1007.06
2018-05-16T03:28:42.661Z,1007.07
2018-05-16T03:29:42.559Z,1007.07
2018-05-16T03:30:42.456Z,1007.06
2018-05-16T03:31:42.365Z,1007.07
2018-05-16T03:32:42.262Z,1007.06
2018-05-16T03:33:42.173Z,1007.06
2018-05-16T03:34:42.068Z,1007.06
2018-05-16T03:35:41.964Z,1007.07
2018-05-16T03:36:41.874Z,1007.08
2018-05-16T03:37:41.771Z,1007.00
2018-05-16T03:38:41.668Z,1007.06
2018-05-16T03:39:41.575Z,1007.02
2018-05-16T03:40:41.472Z,1007.01
2018-05-16T03:41:41.383Z,1007.00
2018-05-16T03:42:41.279Z,1006.97
2018-05-16T03:43:41.175Z,1007.01
2018-05-16T03:44:41.083Z,1006.99
2018-05-16T03:45:40.998Z,1007.01
2018-05-16T03:46:40.892Z,1006.99
2018-05-16T03:47:40.788Z,1007.03
2018-05-16T03:48:40.695Z,1007.02
2018-05-16T03:49:40.593Z,1007.06
2018-05-16T03:50:40.490Z,1007.05
2018-05-16T03:51:40.398Z,1007.05
2018-05-16T03:52:40.296Z,1007.09
2018-05-16T03:53:40.192Z,1007.05
2018-05-16T03:54:40.100Z,1007.06
2018-05-16T03:55:39.997Z,1007.06
2018-05-16T03:56:39.907Z,1007.06
2018-05-16T03:57:39.804Z,1007.08
2018-05-16T03:58:39.701Z,1007.09
2018-05-16T03:59:39.609Z,1007.11
2018-05-16T04:00:39.506Z,1007.11
2018-05-16T04:01:39.417Z,1007.15
2018-05-16T04:02:39.316Z,1007.12
2018-05-16T04:03:39.209Z,1007.13
2018-05-16T04:04:39.117Z,1007.09
2018-05-16T04:05:39.014Z,1007.08
2018-05-16T04:06:38.924Z,1007.05
2018-05-16T04:07:38.821Z,1007.04
2018-05-16T04:08:38.730Z,1007.08
2018-05-16T04:09:38.627Z,1007.11
2018-05-16T04:10:38.523Z,1007.06
2018-05-16T04:11:38.433Z,1007.07
2018-05-16T04:12:38.330Z,1007.08
2018-05-16T04:13:38.247Z,1007.11
2018-05-16T04:14:38.134Z,1007.09
2018-05-16T04:15:38.033Z,1007.10
2018-05-16T04:16:37.944Z,1007.08
2018-05-16T04:17:38.089Z,1007.06
2018-05-16T04:18:37.747Z,1007.08
2018-05-16T04:19:37.643Z,1007.01
2018-05-16T04:20:37.554Z,1007.04
2018-05-16T04:21:37.450Z,1007.01
2018-05-16T04:22:37.358Z,1007.01
2018-05-16T04:23:37.255Z,1007.04
2018-05-16T04:24:37.152Z,1007.04
2018-05-16T04:25:37.062Z,1007.05
2018-05-16T04:26:36.958Z,1007.03
2018-05-16T04:27:36.879Z,1007.04
2018-05-16T04:28:36.763Z,1007.04
2018-05-16T04:29:36.675Z,1007.04
2018-05-16T04:30:36.570Z,1007.09
2018-05-16T04:31:36.478Z,1007.05
2018-05-16T04:32:36.451Z,1007.04
2018-05-16T04:33:36.273Z,1007.02
2018-05-16T04:34:36.185Z,1007.04
2018-05-16T04:35:36.084Z,1007.01
2018-05-16T04:36:35.987Z,1007.02
2018-05-16T04:37:35.884Z,1007.02
2018-05-16T04:38:35.793Z,1007.01
2018-05-16T04:39:35.694Z,1007.02
2018-05-16T04:40:35.599Z,1007.03
2018-05-16T04:41:35.495Z,1007.03
2018-05-16T04:42:35.406Z,1007.02
2018-05-16T04:43:35.308Z,1007.07
2018-05-16T04:44:35.210Z,1007.05
2018-05-16T04:45:35.107Z,1007.07
2018-05-16T04:46:35.019Z,1007.07
2018-05-16T04:47:34.912Z,1007.12
2018-05-16T04:48:34.822Z,1007.19
2018-05-16T04:49:34.719Z,1007.10
2018-05-16T04:50:34.616Z,1007.11
2018-05-16T04:51:34.534Z,1007.14
2018-05-16T04:52:34.423Z,1007.14
2018-05-16T04:53:34.330Z,1007.14
2018-05-16T04:54:34.230Z,1007.14
2018-05-16T04:55:34.137Z,1007.15
2018-05-16T04:56:34.047Z,1007.19
2018-05-16T04:57:33.942Z,1007.22
2018-05-16T04:58:33.840Z,1007.29
2018-05-16T04:59:33.751Z,1007.26
2018-05-16T05:00:33.656Z,1007.33
2018-05-16T05:01:33.553Z,1007.35
2018-05-16T05:02:33.463Z,1007.37
2018-05-16T05:03:33.361Z,1007.32
2018-05-16T05:04:33.268Z,1007.35
2018-05-16T05:05:33.165Z,1007.36
2018-05-16T05:06:33.076Z,1007.39
2018-05-16T05:07:32.976Z,1007.36
2018-05-16T05:08:32.881Z,1007.40
2018-05-16T05:09:32.779Z,1007.38
2018-05-16T05:10:32.687Z,1007.40
2018-05-16T05:11:32.596Z,1007.41
2018-05-16T05:12:32.506Z,1007.38
2018-05-16T05:13:32.403Z,1007.42
2018-05-16T05:14:32.299Z,1007.41
2018-05-16T05:15:32.207Z,1007.37
2018-05-16T05:16:32.105Z,1007.40
2018-05-16T05:17:32.015Z,1007.37
2018-05-16T05:18:31.974Z,1007.40
2018-05-16T05:19:31.819Z,1007.37
2018-05-16T05:20:31.731Z,1007.37
2018-05-16T05:21:31.626Z,1007.35
2018-05-16T05:22:31.784Z,1007.34
2018-05-16T05:23:31.431Z,1007.34
2018-05-16T05:24:31.340Z,1007.35
2018-05-16T05:25:31.239Z,1007.34
2018-05-16T05:26:31.146Z,1007.33
2018-05-16T05:27:31.044Z,1007.32
2018-05-16T05:28:30.953Z,1007.36
2018-05-16T05:29:30.861Z,1007.39
2018-05-16T05:30:30.758Z,1007.38
2018-05-16T05:31:30.668Z,1007.38
2018-05-16T05:32:30.565Z,1007.37
2018-05-16T05:33:30.476Z,1007.36
2018-05-16T05:34:30.385Z,1007.30
2018-05-16T05:35:30.280Z,1007.34
2018-05-16T05:36:30.188Z,1007.38
2018-05-16T05:37:30.097Z,1007.36
2018-05-16T05:38:29.995Z,1007.34
2018-05-16T05:39:29.903Z,1007.37
2018-05-16T05:40:29.804Z,1007.33
2018-05-16T05:41:29.709Z,1007.38
2018-05-16T05:42:29.618Z,1007.35
2018-05-16T05:43:29.610Z,1007.36
2018-05-16T05:44:29.424Z,1007.36
2018-05-16T05:45:29.333Z,1007.35
2018-05-16T05:46:29.231Z,1007.38
2018-05-16T05:47:29.140Z,1007.33
2018-05-16T05:48:29.038Z,1007.37
2018-05-16T05:49:28.946Z,1007.35
2018-05-16T05:50:28.855Z,1007.31
2018-05-16T05:51:28.752Z,1007.35
2018-05-16T05:52:28.661Z,1007.30
2018-05-16T05:53:28.570Z,1007.28
2018-05-16T05:54:28.467Z,1007.32
2018-05-16T05:55:28.376Z,1007.31
2018-05-16T05:56:28.286Z,1007.26
2018-05-16T05:57:28.182Z,1007.28
2018-05-16T05:58:28.090Z,1007.29
2018-05-16T05:59:28.000Z,1007.36
2018-05-16T06:00:27.896Z,1007.36
2018-05-16T06:01:27.805Z,1007.38
2018-05-16T06:02:27.963Z,1007.38
2018-05-16T06:03:27.614Z,1007.40
2018-05-16T06:04:27.519Z,1007.46
2018-05-16T06:05:27.493Z,1007.47
2018-05-16T06:06:27.326Z,1007.53
2018-05-16T06:07:27.235Z,1007.38
2018-05-16T06:08:27.144Z,1007.53
2018-05-16T06:09:27.042Z,1007.52
2018-05-16T06:10:26.950Z,1007.55
2018-05-16T06:11:26.859Z,1007.56
2018-05-16T06:12:26.757Z,1007.51
2018-05-16T06:13:26.665Z,1007.53
2018-05-16T06:14:26.577Z,1007.52
2018-05-16T06:15:26.484Z,1007.58
2018-05-16T06:16:26.382Z,1007.53
2018-05-16T06:17:26.290Z,1007.49
2018-05-16T06:18:26.199Z,1007.56
2018-05-16T06:19:26.116Z,1007.52
2018-05-16T06:20:26.017Z,1007.51
2018-05-16T06:21:25.926Z,1007.49
2018-05-16T06:22:26.086Z,1007.57
2018-05-16T06:23:25.745Z,1007.52
2018-05-16T06:24:25.651Z,1007.57
2018-05-16T06:25:25.551Z,1007.61
2018-05-16T06:26:25.460Z,1007.57
2018-05-16T06:27:25.468Z,1007.51
2018-05-16T06:28:25.282Z,1007.57
2018-05-16T06:29:25.187Z,1007.58
2018-05-16T06:30:25.097Z,1007.55
2018-05-16T06:31:25.005Z,1007.32
2018-05-16T06:32:24.914Z,1007.45
2018-05-16T06:33:24.823Z,1007.63
2018-05-16T06:34:24.734Z,1007.64
2018-05-16T06:35:24.642Z,1007.52
2018-05-16T06:36:24.556Z,1007.36
2018-05-16T06:37:24.460Z,1007.48
2018-05-16T06:38:24.370Z,1007.42
2018-05-16T06:39:24.279Z,1007.37
2018-05-16T06:40:24.191Z,1007.36
2018-05-16T06:41:24.096Z,1007.36
2018-05-16T06:42:24.009Z,1007.33
2018-05-16T06:43:23.915Z,1007.30
2018-05-16T06:44:23.829Z,1007.34
2018-05-16T06:45:23.735Z,1007.27
2018-05-16T06:46:23.644Z,1007.26
2018-05-16T06:47:23.552Z,1007.27
2018-05-16T06:48:23.462Z,1007.31
2018-05-16T06:49:23.384Z,1007.28
2018-05-16T06:50:23.280Z,1007.32
2018-05-16T06:51:23.189Z,1007.31
2018-05-16T06:52:23.098Z,1007.34
2018-05-16T06:53:23.007Z,1007.39
2018-05-16T06:54:22.917Z,1007.39
2018-05-16T06:55:22.825Z,1007.39
2018-05-16T06:56:22.771Z,1007.40
2018-05-16T06:57:22.947Z,1007.44
2018-05-16T06:58:22.554Z,1007.46
2018-05-16T06:59:22.469Z,1007.44
2018-05-16T07:00:22.372Z,1007.44
2018-05-16T07:01:22.281Z,1007.44
2018-05-16T07:02:22.191Z,1007.45
2018-05-16T07:03:22.099Z,1007.44
2018-05-16T07:04:22.010Z,1007.45
2018-05-16T07:05:21.917Z,1007.50
2018-05-16T07:06:21.828Z,1007.53
2018-05-16T07:07:21.736Z,1007.49
2018-05-16T07:08:21.633Z,1007.45
2018-05-16T07:09:21.543Z,1007.46
2018-05-16T07:10:21.453Z,1007.49
2018-05-16T07:11:21.362Z,1007.52
2018-05-16T07:12:21.270Z,1007.55
2018-05-16T07:13:21.179Z,1007.81
2018-05-16T07:14:21.088Z,1007.63
2018-05-16T07:15:20.998Z,1007.72
2018-05-16T07:16:20.906Z,1007.96
2018-05-16T07:17:21.066Z,1008.01
2018-05-16T07:18:20.724Z,1007.81
2018-05-16T07:19:20.634Z,1007.92
2018-05-16T07:20:20.543Z,1007.83
2018-05-16T07:21:20.457Z,1007.68
2018-05-16T07:22:20.361Z,1007.77
2018-05-16T07:23:20.271Z,1007.78
2018-05-16T07:24:20.179Z,1007.96
2018-05-16T07:25:20.090Z,1007.98
2018-05-16T07:26:19.998Z,1007.96
2018-05-16T07:27:19.908Z,1007.80
2018-05-16T07:28:19.830Z,1007.97
2018-05-16T07:29:19.738Z,1007.66
2018-05-16T07:30:19.655Z,1007.64
2018-05-16T07:31:19.557Z,1007.62
2018-05-16T07:32:19.482Z,1007.62
2018-05-16T07:33:19.388Z,1007.62
2018-05-16T07:34:19.298Z,1007.65
2018-05-16T07:35:19.207Z,1007.77
2018-05-16T07:36:19.115Z,1007.71
2018-05-16T07:37:19.026Z,1007.82
2018-05-16T07:38:18.949Z,1007.83
2018-05-16T07:39:18.855Z,1007.70
2018-05-16T07:40:18.765Z,1007.87
2018-05-16T07:41:18.678Z,1007.82
2018-05-16T07:42:18.595Z,1007.83
2018-05-16T07:43:18.506Z,1007.79
2018-05-16T07:44:18.426Z,1007.77
2018-05-16T07:45:18.334Z,1007.84
2018-05-16T07:46:18.251Z,1007.85
2018-05-16T07:47:18.153Z,1007.69
2018-05-16T07:48:18.074Z,1007.64
2018-05-16T07:49:17.984Z,1007.58
2018-05-16T07:50:17.894Z,1007.50
2018-05-16T07:51:17.874Z,1007.46
2018-05-16T07:52:17.726Z,1007.49
2018-05-16T07:53:17.635Z,1007.53
2018-05-16T07:54:17.555Z,1007.47
2018-05-16T07:55:17.466Z,1007.43
2018-05-16T07:56:17.375Z,1007.46
2018-05-16T07:57:17.295Z,1007.50
2018-05-16T07:58:17.204Z,1007.53
2018-05-16T07:59:17.126Z,1007.51
2018-05-16T08:00:17.029Z,1007.48
2018-05-16T08:01:16.945Z,1007.49
2018-05-16T08:02:16.854Z,1007.46
2018-05-16T08:03:16.830Z,1007.46
2018-05-16T08:04:16.686Z,1007.51
2018-05-16T08:05:16.594Z,1007.45
2018-05-16T08:06:16.515Z,1007.45
2018-05-16T08:07:16.427Z,1007.45
2018-05-16T08:08:16.347Z,1007.44
2018-05-16T08:09:16.243Z,1007.39
2018-05-16T08:10:16.165Z,1007.41
2018-05-16T08:11:16.074Z,1007.39
2018-05-16T08:12:16.054Z,1007.42
2018-05-16T08:13:15.906Z,1007.41
2018-05-16T08:14:15.804Z,1007.43
2018-05-16T08:15:15.724Z,1007.46
2018-05-16T08:16:15.632Z,1007.49
2018-05-16T08:17:15.543Z,1007.48
2018-05-16T08:18:15.450Z,1007.46
2018-05-16T08:19:15.370Z,1007.44
2018-05-16T08:20:15.283Z,1007.46
2018-05-16T08:21:15.191Z,1007.45
2018-05-16T08:22:15.100Z,1007.47
2018-05-16T08:23:15.011Z,1007.46
2018-05-16T08:24:14.920Z,1007.48
2018-05-16T08:25:14.841Z,1007.47
2018-05-16T08:26:14.749Z,1007.43
2018-05-16T08:27:14.658Z,1007.43
2018-05-16T08:28:14.567Z,1007.44
2018-05-16T08:29:14.477Z,1007.44
2018-05-16T08:30:14.386Z,1007.40
2018-05-16T08:31:14.404Z,1007.40
2018-05-16T08:32:14.218Z,1007.41
2018-05-16T08:33:14.126Z,1007.44
2018-05-16T08:34:14.036Z,1007.44
2018-05-16T08:35:13.946Z,1007.43
2018-05-16T08:36:13.854Z,1007.42
2018-05-16T08:37:13.766Z,1007.46
2018-05-16T08:38:13.684Z,1007.52
2018-05-16T08:39:13.595Z,1007.49
2018-05-16T08:40:13.504Z,1007.51
2018-05-16T08:41:13.413Z,1007.55
2018-05-16T08:42:13.322Z,1007.65
2018-05-16T08:43:13.241Z,1007.53
2018-05-16T08:44:13.139Z,1007.60
2018-05-16T08:45:13.049Z,1007.63
2018-05-16T08:46:12.960Z,1007.58
2018-05-16T08:47:12.879Z,1007.60
2018-05-16T08:48:12.789Z,1007.65
2018-05-16T08:49:12.700Z,1007.66
2018-05-16T08:50:12.608Z,1007.68
2018-05-16T08:51:12.516Z,1007.85
2018-05-16T08:52:12.428Z,1007.69
2018-05-16T08:53:12.335Z,1007.57
2018-05-16T08:54:12.258Z,1007.62
2018-05-16T08:55:12.166Z,1007.63
2018-05-16T08:56:12.075Z,1007.69
2018-05-16T08:57:11.985Z,1007.66
2018-05-16T08:58:11.893Z,1007.80
2018-05-16T08:59:11.818Z,1007.63
2018-05-16T09:00:11.725Z,1007.60
2018-05-16T09:01:11.701Z,1007.61
2018-05-16T09:02:11.545Z,1007.56
2018-05-16T09:03:11.465Z,1007.59
2018-05-16T09:04:11.375Z,1007.63
2018-05-16T09:05:11.284Z,1007.65
2018-05-16T09:06:11.193Z,1007.66
2018-05-16T09:07:11.113Z,1007.72
2018-05-16T09:08:11.024Z,1007.71
2018-05-16T09:09:10.933Z,1007.71
2018-05-16T09:10:10.853Z,1007.69
2018-05-16T09:11:10.764Z,1007.66
2018-05-16T09:12:10.673Z,1007.66
2018-05-16T09:13:10.593Z,1007.62
2018-05-16T09:14:10.503Z,1007.64
2018-05-16T09:15:10.425Z,1007.60
2018-05-16T09:16:10.336Z,1007.69
2018-05-16T09:17:10.328Z,1007.55
2018-05-16T09:18:10.166Z,1007.56
2018-05-16T09:19:10.075Z,1007.52
2018-05-16T09:20:09.995Z,1007.53
2018-05-16T09:21:09.906Z,1007.51
2018-05-16T09:22:09.816Z,1007.53
2018-05-16T09:23:09.737Z,1007.63
2018-05-16T09:24:09.646Z,1007.69
2018-05-16T09:25:09.593Z,1007.61
2018-05-16T09:26:09.476Z,1007.60
2018-05-16T09:27:09.385Z,1007.59
2018-05-16T09:28:09.306Z,1007.68
2018-05-16T09:29:09.230Z,1007.70
2018-05-16T09:30:09.126Z,1007.70
2018-05-16T09:31:09.048Z,1007.65
2018-05-16T09:32:08.958Z,1007.72
2018-05-16T09:33:08.880Z,1007.68
2018-05-16T09:34:08.788Z,1007.69
2018-05-16T09:35:08.722Z,1007.68
2018-05-16T09:36:08.630Z,1007.62
2018-05-16T09:37:08.529Z,1007.61
2018-05-16T09:38:08.436Z,1007.62
2018-05-16T09:39:08.357Z,1007.62
2018-05-16T09:40:08.268Z,1007.60
2018-05-16T09:41:08.189Z,1007.62
2018-05-16T09:42:08.097Z,1007.59
2018-05-16T09:43:08.007Z,1007.63
2018-05-16T09:44:07.930Z,1007.62
2018-05-16T09:45:07.838Z,1007.60
2018-05-16T09:46:07.759Z,1007.59
2018-05-16T09:47:07.671Z,1007.59
2018-05-16T09:48:07.598Z,1007.59
2018-05-16T09:49:07.501Z,1007.58
2018-05-16T09:50:07.413Z,1007.57
2018-05-16T09:51:07.331Z,1007.58
2018-05-16T09:52:07.240Z,1007.61
2018-05-16T09:53:07.161Z,1007.59
2018-05-16T09:54:07.083Z,1007.59
2018-05-16T09:55:06.993Z,1007.53
2018-05-16T09:56:06.901Z,1007.58
2018-05-16T09:57:06.824Z,1007.54
2018-05-16T09:58:06.736Z,1007.51
2018-05-16T09:59:06.641Z,1007.50
2018-05-16T10:00:06.563Z,1007.51
2018-05-16T10:01:06.475Z,1007.53
2018-05-16T10:02:06.381Z,1007.47
2018-05-16T10:03:06.315Z,1007.57
2018-05-16T10:04:06.213Z,1007.55
2018-05-16T10:05:06.123Z,1007.55
2018-05-16T10:06:06.044Z,1007.53
2018-05-16T10:07:05.953Z,1007.54
2018-05-16T10:08:05.877Z,1007.53
2018-05-16T10:09:05.784Z,1007.57
2018-05-16T10:10:05.695Z,1007.61
2018-05-16T10:11:05.602Z,1007.52
2018-05-16T10:12:05.525Z,1007.56
2018-05-16T10:13:05.434Z,1007.52
2018-05-16T10:14:05.342Z,1007.59
2018-05-16T10:15:05.290Z,1007.57
2018-05-16T10:16:05.173Z,1007.58
2018-05-16T10:17:05.141Z,1007.59
2018-05-16T10:18:05.003Z,1007.63
2018-05-16T10:19:04.914Z,1007.63
2018-05-16T10:20:04.823Z,1007.62
2018-05-16T10:21:04.747Z,1007.62
2018-05-16T10:22:04.904Z,1007.60
2018-05-16T10:23:04.562Z,1007.53
2018-05-16T10:24:04.483Z,1007.56
2018-05-16T10:25:04.394Z,1007.51
2018-05-16T10:26:04.304Z,1007.56
2018-05-16T10:27:04.216Z,1007.61
2018-05-16T10:28:04.133Z,1007.56
2018-05-16T10:29:04.042Z,1007.53
2018-05-16T10:30:03.953Z,1007.59
2018-05-16T10:31:03.873Z,1007.53
2018-05-16T10:32:03.782Z,1007.52
2018-05-16T10:33:03.696Z,1007.58
2018-05-16T10:34:03.602Z,1007.62
2018-05-16T10:35:03.527Z,1007.60
2018-05-16T10:36:03.433Z,1007.56
2018-05-16T10:37:03.340Z,1007.62
2018-05-16T10:38:03.261Z,1007.68
2018-05-16T10:39:03.172Z,1007.67
2018-05-16T10:40:03.081Z,1007.65
2018-05-16T10:41:03.003Z,1007.68
2018-05-16T10:42:02.995Z,1007.53
2018-05-16T10:43:02.821Z,1007.40
2018-05-16T10:44:02.742Z,1007.48
2018-05-16T10:45:02.653Z,1007.48
2018-05-16T10:46:02.574Z,1007.43
2018-05-16T10:47:02.482Z,1007.44
2018-05-16T10:48:02.392Z,1007.46
2018-05-16T10:49:02.314Z,1007.50
2018-05-16T10:50:02.225Z,1007.53
2018-05-16T10:51:02.144Z,1007.52
2018-05-16T10:52:02.064Z,1007.49
2018-05-16T10:53:01.964Z,1007.44
2018-05-16T10:54:01.888Z,1007.44
2018-05-16T10:55:01.798Z,1007.45
2018-05-16T10:56:01.718Z,1007.43
2018-05-16T10:57:01.625Z,1007.36
2018-05-16T10:58:01.534Z,1007.39
2018-05-16T10:59:01.456Z,1007.46
2018-05-16T11:00:01.368Z,1007.47
2018-05-16T11:01:01.286Z,1007.40
2018-05-16T11:02:01.202Z,1007.35
2018-05-16T11:03:01.106Z,1007.43
2018-05-16T11:04:01.026Z,1007.41
2018-05-16T11:05:00.937Z,1007.44
2018-05-16T11:06:00.845Z,1007.46
2018-05-16T11:07:00.766Z,1007.50
2018-05-16T11:08:00.675Z,1007.42
2018-05-16T11:09:00.643Z,1007.34
2018-05-16T11:10:00.506Z,1007.34
2018-05-16T11:11:00.416Z,1007.36
2018-05-16T11:12:00.343Z,1007.37
2018-05-16T11:13:00.260Z,1007.33
2018-05-16T11:14:00.156Z,1007.29
2018-05-16T11:15:00.078Z,1007.32
2018-05-16T11:15:59.990Z,1007.38
2018-05-16T11:16:59.908Z,1007.33
2018-05-16T11:17:59.817Z,1007.35
2018-05-16T11:18:59.727Z,1007.35
2018-05-16T11:19:59.648Z,1007.36
2018-05-16T11:20:59.564Z,1007.40
2018-05-16T11:21:59.486Z,1007.35
2018-05-16T11:22:59.388Z,1007.30
2018-05-16T11:23:59.311Z,1007.23
2018-05-16T11:24:59.223Z,1007.22
2018-05-16T11:25:59.145Z,1007.24
2018-05-16T11:26:59.050Z,1007.23
2018-05-16T11:27:58.971Z,1007.15
2018-05-16T11:28:58.886Z,1007.15
2018-05-16T11:29:58.804Z,1007.14
2018-05-16T11:30:58.712Z,1007.17
2018-05-16T11:31:58.633Z,1007.12
2018-05-16T11:32:58.543Z,1007.10
2018-05-16T11:33:58.451Z,1007.09
2018-05-16T11:34:58.373Z,1007.14
2018-05-16T11:35:58.284Z,1007.06
2018-05-16T11:36:58.207Z,1007.05
2018-05-16T11:37:58.114Z,1007.09
2018-05-16T11:38:58.025Z,1007.05
2018-05-16T11:39:57.945Z,1007.07
2018-05-16T11:40:57.853Z,1007.01
2018-05-16T11:41:57.764Z,1007.00
2018-05-16T11:42:57.685Z,1006.99
2018-05-16T11:43:57.596Z,1007.03
2018-05-16T11:44:57.503Z,1006.96
2018-05-16T11:45:57.426Z,1006.97
2018-05-16T11:46:57.333Z,1006.96
2018-05-16T11:47:57.247Z,1007.01
2018-05-16T11:48:57.202Z,1006.94
2018-05-16T11:49:57.086Z,1006.92
2018-05-16T11:50:56.983Z,1006.89
2018-05-16T11:51:56.893Z,1006.91
2018-05-16T11:52:56.813Z,1006.94
2018-05-16T11:53:56.724Z,1006.91
2018-05-16T11:54:56.632Z,1006.99
2018-05-16T11:55:56.542Z,1006.97
2018-05-16T11:56:56.451Z,1007.02
2018-05-16T11:57:56.373Z,1007.02
2018-05-16T11:58:56.282Z,1007.05
2018-05-16T11:59:56.190Z,1007.02
2018-05-16T12:00:56.101Z,1006.99
2018-05-16T12:01:56.021Z,1007.02
2018-05-16T12:02:55.966Z,1006.98
2018-05-16T12:03:55.840Z,1006.96